Time;durP1;ratioP1;P1;durP2;ratioP2;P2;SDS_P1;SDS_P2;PMS_P1;PMS_P2;Temp;Humidity;BMP_temperature;BMP_pressure;BME280_temperature;BME280_humidity;BME280_pressure;Samples;Min_cycle;Max_cycle;Signal;HPM_P1;HPM_P2
2022/05/11 00:00:20;;;;;;;13.70;4.72;;;;;;;;;;5051346;28;20028;-65
2022/05/11 00:02:46;;;;;;;17.08;4.75;;;;;;;;;;5051096;28;20060;-65
2022/05/11 00:05:13;;;;;;;15.93;4.70;;;;;;;;;;5054311;28;20021;-65
2022/05/11 00:07:40;;;;;;;18.35;4.22;;;;;;;;;;5054484;28;20035;-65
2022/05/11 00:10:12;;;;;;;13.43;4.47;;;;;;;;;;5054668;28;20028;-65
2022/05/11 00:12:43;;;;;;;14.82;3.80;;;;;;;;;;5054524;28;20045;-65
2022/05/11 00:15:10;;;;;;;16.88;4.30;;;;;;;;;;5054874;28;20033;-65
2022/05/11 00:17:36;;;;;;;9.88;3.88;;;;;;;;;;5054245;28;20428;-65
2022/05/11 00:20:03;;;;;;;16.30;4.15;;;;;;;;;;5054606;28;20402;-65
2022/05/11 00:22:29;;;;;;;21.77;5.20;;;;;;;;;;5054669;28;20075;-65
2022/05/11 00:24:55;;;;;;;12.55;4.28;;;;;;;;;;5054205;28;20067;-65
2022/05/11 00:27:21;;;;;;;17.00;4.00;;;;;;;;;;5061684;28;20020;-65
2022/05/11 00:29:47;;;;;;;20.33;5.13;;;;;;;;;;5055099;28;20481;-65
2022/05/11 00:32:13;;;;;;;18.55;4.72;;;;;;;;;;5054449;28;20029;-65
2022/05/11 00:34:39;;;;;;;14.70;4.28;;;;;;;;;;5054037;28;20618;-65
2022/05/11 00:37:05;;;;;;;16.77;4.80;;;;;;;;;;5054267;28;20021;-65
2022/05/11 00:39:34;;;;;;;21.80;4.80;;;;;;;;;;5053840;28;20021;-65
2022/05/11 00:42:01;;;;;;;21.40;6.28;;;;;;;;;;5037863;28;20032;-65
2022/05/11 00:44:27;;;;;;;13.85;4.22;;;;;;;;;;5054082;28;20036;-65
2022/05/11 00:46:57;;;;;;;12.93;4.57;;;;;;;;;;5053826;28;20029;-65
2022/05/11 00:49:36;;;;;;;12.25;4.40;;;;;;;;;;5054128;28;20377;-65
2022/05/11 00:52:16;;;;;;;16.50;5.20;;;;;;;;;;5053997;28;20025;-65
2022/05/11 00:54:47;;;;;;;14.60;3.60;;;;;;;;;;5053568;28;20385;-65
2022/05/11 00:57:19;;;;;;;19.15;4.32;;;;;;;;;;5054085;28;20048;-65
2022/05/11 00:59:46;;;;;;;15.50;3.97;;;;;;;;;;5053466;28;20116;-65
2022/05/11 01:02:13;;;;;;;27.65;5.05;;;;;;;;;;5053852;28;20568;-65
2022/05/11 01:04:40;;;;;;;13.07;3.90;;;;;;;;;;5053770;28;20104;-65
2022/05/11 01:07:09;;;;;;;11.25;3.55;;;;;;;;;;5053502;28;20124;-65
2022/05/11 01:09:36;;;;;;;12.80;4.15;;;;;;;;;;5053678;28;20037;-65
2022/05/11 01:12:02;;;;;;;13.18;3.40;;;;;;;;;;5053124;28;20016;-65
2022/05/11 01:14:31;;;;;;;13.05;3.40;;;;;;;;;;5053726;28;20025;-65
2022/05/11 01:16:58;;;;;;;18.92;3.33;;;;;;;;;;5052046;28;20483;-65
2022/05/11 01:19:33;;;;;;;12.68;3.72;;;;;;;;;;5053578;28;20500;-65
2022/05/11 01:22:03;;;;;;;21.83;4.95;;;;;;;;;;5052676;28;20096;-65
2022/05/11 01:24:39;;;;;;;16.77;3.67;;;;;;;;;;5053512;28;20029;-65
2022/05/11 01:27:31;;;;;;;15.38;4.88;;;;;;;;;;5058134;28;20032;-65
2022/05/11 01:30:04;;;;;;;17.67;4.70;;;;;;;;;;5050947;28;20057;-65
2022/05/11 01:32:30;;;;;;;8.05;2.80;;;;;;;;;;5053264;28;20039;-65
2022/05/11 01:35:06;;;;;;;14.90;3.58;;;;;;;;;;5052975;28;20036;-65
2022/05/11 01:37:37;;;;;;;14.07;3.15;;;;;;;;;;5052723;28;20033;-65
2022/05/11 01:40:03;;;;;;;19.75;3.80;;;;;;;;;;5052602;28;20413;-65
2022/05/11 01:42:29;;;;;;;15.00;3.50;;;;;;;;;;5053150;28;20060;-65
2022/05/11 01:44:56;;;;;;;12.68;3.25;;;;;;;;;;5052723;28;20024;-65
2022/05/11 01:47:22;;;;;;;18.92;3.17;;;;;;;;;;5052051;28;20127;-65
2022/05/11 01:49:48;;;;;;;14.93;3.00;;;;;;;;;;5052666;28;20037;-65
2022/05/11 01:52:14;;;;;;;10.52;3.35;;;;;;;;;;5052471;28;20028;-64
2022/05/11 01:54:40;;;;;;;10.20;3.88;;;;;;;;;;5052658;28;20567;-65
2022/05/11 01:57:06;;;;;;;17.30;4.82;;;;;;;;;;5052355;28;20052;-65
2022/05/11 01:59:33;;;;;;;12.20;3.20;;;;;;;;;;5052943;28;20025;-65
2022/05/11 02:01:59;;;;;;;8.70;3.25;;;;;;;;;;5052396;28;20021;-65
2022/05/11 02:09:55;;;;;;;10.02;2.85;;;;;;;;;;5052049;28;20037;-65
2022/05/11 02:12:21;;;;;;;15.02;4.00;;;;;;;;;;5052754;28;20036;-65
2022/05/11 02:14:47;;;;;;;8.85;2.90;;;;;;;;;;5052405;28;20041;-65
2022/05/11 02:17:13;;;;;;;12.13;2.95;;;;;;;;;;5052230;28;20029;-65
2022/05/11 02:19:39;;;;;;;12.35;3.03;;;;;;;;;;5052073;28;20435;-65
2022/05/11 02:22:05;;;;;;;20.48;3.90;;;;;;;;;;5051988;28;20025;-65
2022/05/11 02:24:32;;;;;;;14.73;4.20;;;;;;;;;;5052393;28;20112;-65
2022/05/11 02:27:01;;;;;;;15.48;3.13;;;;;;;;;;5055518;28;20052;-64
2022/05/11 02:29:27;;;;;;;11.40;3.50;;;;;;;;;;5058448;28;20037;-67
2022/05/11 02:31:53;;;;;;;17.52;3.35;;;;;;;;;;5051988;28;20021;-67
2022/05/11 02:37:04;;;;;;;10.07;2.70;;;;;;;;;;5052014;28;20172;-67
2022/05/11 02:39:30;;;;;;;10.35;3.30;;;;;;;;;;5052194;28;20052;-67
2022/05/11 02:41:56;;;;;;;14.45;3.53;;;;;;;;;;5051630;28;20114;-67
2022/05/11 02:44:22;;;;;;;10.90;3.00;;;;;;;;;;5052221;28;20088;-67
2022/05/11 02:46:49;;;;;;;11.15;2.85;;;;;;;;;;5052022;28;20033;-67
2022/05/11 02:49:15;;;;;;;11.48;3.80;;;;;;;;;;5051554;28;20056;-67
2022/05/11 02:51:41;;;;;;;15.55;3.25;;;;;;;;;;5052122;28;20041;-67
2022/05/11 02:54:07;;;;;;;11.30;3.53;;;;;;;;;;5051575;28;20032;-67
2022/05/11 02:56:33;;;;;;;14.15;3.10;;;;;;;;;;5078415;28;20052;-67
2022/05/11 02:59:00;;;;;;;9.38;3.75;;;;;;;;;;5041323;28;20040;-67
2022/05/11 03:01:26;;;;;;;11.77;3.08;;;;;;;;;;5051762;28;20124;-67
2022/05/11 03:03:52;;;;;;;14.18;3.70;;;;;;;;;;5051456;28;20025;-67
2022/05/11 03:06:18;;;;;;;13.30;2.72;;;;;;;;;;5051477;28;20388;-67
2022/05/11 03:08:44;;;;;;;11.27;2.90;;;;;;;;;;5051836;28;20028;-67
2022/05/11 03:11:10;;;;;;;14.13;3.25;;;;;;;;;;5052426;28;20028;-67
2022/05/11 03:13:36;;;;;;;11.82;3.10;;;;;;;;;;5052130;28;20146;-67
2022/05/11 03:16:03;;;;;;;10.95;4.00;;;;;;;;;;5051085;28;20119;-67
2022/05/11 03:18:29;;;;;;;12.38;2.90;;;;;;;;;;5051385;28;20016;-67
2022/05/11 03:20:56;;;;;;;16.70;4.40;;;;;;;;;;5051698;28;20022;-67
2022/05/11 03:23:22;;;;;;;10.25;3.47;;;;;;;;;;5053886;28;20396;-67
2022/05/11 03:25:49;;;;;;;9.05;2.72;;;;;;;;;;5051667;28;20202;-67
2022/05/11 03:28:15;;;;;;;11.88;3.55;;;;;;;;;;5062815;28;20020;-67
2022/05/11 03:30:41;;;;;;;9.38;3.10;;;;;;;;;;5051449;28;20051;-67
2022/05/11 03:35:51;;;;;;;13.90;3.30;;;;;;;;;;5051226;28;20116;-67
2022/05/11 03:38:17;;;;;;;12.35;2.80;;;;;;;;;;5051098;28;20385;-67
2022/05/11 03:40:44;;;;;;;15.50;4.15;;;;;;;;;;5055526;28;20083;-67
2022/05/11 03:43:10;;;;;;;12.65;3.28;;;;;;;;;;5055203;28;20060;-67
2022/05/11 03:45:36;;;;;;;17.08;3.28;;;;;;;;;;5055304;28;20401;-67
2022/05/11 03:48:03;;;;;;;12.68;3.42;;;;;;;;;;5053672;28;20032;-67
2022/05/11 03:50:29;;;;;;;10.35;3.03;;;;;;;;;;5055116;28;20029;-67
2022/05/11 03:52:57;;;;;;;15.35;3.80;;;;;;;;;;5055275;28;20032;-67
2022/05/11 03:55:23;;;;;;;16.25;3.50;;;;;;;;;;5054648;28;20025;-67
2022/05/11 03:57:49;;;;;;;10.13;3.35;;;;;;;;;;5055030;28;20025;-67
2022/05/11 04:00:21;;;;;;;16.27;3.10;;;;;;;;;;5054495;28;20087;-67
2022/05/11 04:02:47;;;;;;;6.55;2.63;;;;;;;;;;5054783;28;20124;-67
2022/05/11 04:05:14;;;;;;;11.40;2.92;;;;;;;;;;5054752;28;20087;-67
2022/05/11 04:07:40;;;;;;;13.27;3.67;;;;;;;;;;5054740;28;20033;-67
2022/05/11 04:10:07;;;;;;;10.73;2.88;;;;;;;;;;5054487;28;20052;-67
2022/05/11 04:12:34;;;;;;;12.70;3.33;;;;;;;;;;5054738;28;20071;-67
2022/05/11 04:15:00;;;;;;;11.13;3.63;;;;;;;;;;5054701;28;20047;-67
2022/05/11 04:17:27;;;;;;;7.07;2.85;;;;;;;;;;5054030;28;20024;-67
2022/05/11 04:19:53;;;;;;;11.32;3.30;;;;;;;;;;5054718;28;20470;-67
2022/05/11 04:22:19;;;;;;;13.43;3.53;;;;;;;;;;5054259;28;20545;-67
2022/05/11 04:24:45;;;;;;;8.77;3.15;;;;;;;;;;5054687;28;20497;-67
2022/05/11 04:27:11;;;;;;;12.68;3.00;;;;;;;;;;5060167;28;20104;-67
2022/05/11 04:29:38;;;;;;;20.58;3.63;;;;;;;;;;5061503;28;20090;-67
2022/05/11 04:32:04;;;;;;;12.40;3.28;;;;;;;;;;5053891;28;20039;-67
2022/05/11 04:34:31;;;;;;;13.38;4.07;;;;;;;;;;5054314;28;20017;-67
2022/05/11 04:36:57;;;;;;;14.30;4.40;;;;;;;;;;5054292;28;20028;-67
2022/05/11 04:39:23;;;;;;;12.27;4.22;;;;;;;;;;5054010;28;20032;-67
2022/05/11 04:41:49;;;;;;;9.30;3.30;;;;;;;;;;5054168;28;20041;-67
2022/05/11 04:44:16;;;;;;;9.05;2.95;;;;;;;;;;5053863;28;20053;-67
2022/05/11 04:46:42;;;;;;;7.43;2.90;;;;;;;;;;5053866;28;20052;-67
2022/05/11 04:49:17;;;;;;;9.05;3.10;;;;;;;;;;5053771;28;20396;-67
2022/05/11 04:51:43;;;;;;;10.95;2.67;;;;;;;;;;5054176;28;20040;-67
2022/05/11 04:54:11;;;;;;;13.38;3.00;;;;;;;;;;5053825;28;20115;-67
2022/05/11 04:56:38;;;;;;;10.30;3.05;;;;;;;;;;5037429;28;20041;-67
2022/05/11 04:59:05;;;;;;;11.98;3.50;;;;;;;;;;5047923;28;20049;-68
2022/05/11 05:01:31;;;;;;;12.70;3.42;;;;;;;;;;5074652;28;20547;-68
2022/05/11 05:03:57;;;;;;;17.60;5.25;;;;;;;;;;5053364;28;20075;-67
2022/05/11 05:06:23;;;;;;;13.68;3.47;;;;;;;;;;5052764;28;20074;-67
2022/05/11 05:08:52;;;;;;;12.10;4.00;;;;;;;;;;5053377;28;20024;-67
2022/05/11 05:11:18;;;;;;;20.73;4.95;;;;;;;;;;5055883;28;20114;-68
2022/05/11 05:13:44;;;;;;;12.45;3.58;;;;;;;;;;5051287;28;20037;-67
2022/05/11 05:16:10;;;;;;;11.52;3.40;;;;;;;;;;5052588;28;20033;-68
2022/05/11 05:18:36;;;;;;;12.82;3.75;;;;;;;;;;5052197;28;20033;-68
2022/05/11 05:21:02;;;;;;;14.18;3.88;;;;;;;;;;5051803;28;20029;-68
2022/05/11 05:23:28;;;;;;;16.48;4.00;;;;;;;;;;5052337;28;20048;-68
2022/05/11 05:25:55;;;;;;;10.35;3.22;;;;;;;;;;5052750;28;20378;-68
2022/05/11 05:31:10;;;;;;;18.95;4.40;;;;;;;;;;5046887;28;20104;-67
2022/05/11 05:33:39;;;;;;;17.60;4.68;;;;;;;;;;5050059;28;20413;-67
2022/05/11 05:36:05;;;;;;;18.77;3.78;;;;;;;;;;5052120;28;20038;-67
2022/05/11 05:38:31;;;;;;;16.60;3.67;;;;;;;;;;5051924;28;20017;-68
2022/05/11 05:40:58;;;;;;;16.08;3.65;;;;;;;;;;5051775;28;20028;-67
2022/05/11 05:43:24;;;;;;;16.98;4.20;;;;;;;;;;5051356;28;20037;-67
2022/05/11 05:45:52;;;;;;;14.27;4.57;;;;;;;;;;5052382;28;20166;-67
2022/05/11 05:48:22;;;;;;;17.90;4.88;;;;;;;;;;5051841;28;20397;-67
2022/05/11 05:50:48;;;;;;;16.98;3.65;;;;;;;;;;5051270;28;20112;-67
2022/05/11 05:53:19;;;;;;;16.08;3.70;;;;;;;;;;5052152;28;20522;-67
2022/05/11 05:55:47;;;;;;;13.68;3.95;;;;;;;;;;5051765;28;20090;-67
2022/05/11 05:58:14;;;;;;;16.17;4.15;;;;;;;;;;5049120;28;20029;-68
2022/05/11 06:00:40;;;;;;;20.40;4.35;;;;;;;;;;5043841;28;20017;-68
2022/05/11 06:03:06;;;;;;;19.08;4.40;;;;;;;;;;5043099;28;20026;-68
2022/05/11 06:05:32;;;;;;;17.90;4.85;;;;;;;;;;5043630;28;20036;-68
2022/05/11 06:07:58;;;;;;;15.63;3.65;;;;;;;;;;5050268;28;20036;-68
2022/05/11 06:10:25;;;;;;;17.67;4.13;;;;;;;;;;5050931;28;20060;-68
2022/05/11 06:12:52;;;;;;;19.17;3.72;;;;;;;;;;5049621;28;20033;-68
2022/05/11 06:15:18;;;;;;;21.73;4.38;;;;;;;;;;5044698;28;20408;-68
2022/05/11 06:17:45;;;;;;;15.10;3.85;;;;;;;;;;5049132;28;20036;-68
2022/05/11 06:20:11;;;;;;;10.98;2.88;;;;;;;;;;5046289;28;20480;-68
2022/05/11 06:22:38;;;;;;;15.85;3.85;;;;;;;;;;5053297;28;20039;-68
2022/05/11 06:25:04;;;;;;;13.77;3.63;;;;;;;;;;5051027;28;20427;-69
2022/05/11 06:27:30;;;;;;;16.35;3.53;;;;;;;;;;5044433;28;20489;-69
2022/05/11 06:29:58;;;;;;;14.90;3.40;;;;;;;;;;5047854;28;20074;-73
2022/05/11 06:32:24;;;;;;;11.27;3.13;;;;;;;;;;5049381;28;20071;-68
2022/05/11 06:34:51;;;;;;;10.95;2.78;;;;;;;;;;5048032;28;20037;-68
2022/05/11 06:37:17;;;;;;;10.27;3.42;;;;;;;;;;5046071;28;20041;-68
2022/05/11 06:39:44;;;;;;;16.83;3.15;;;;;;;;;;5046540;28;20028;-68
2022/05/11 06:42:11;;;;;;;14.65;2.90;;;;;;;;;;5045297;28;20029;-68
2022/05/11 06:44:37;;;;;;;14.43;3.20;;;;;;;;;;5037649;28;20454;-68
2022/05/11 06:47:04;;;;;;;17.38;3.63;;;;;;;;;;5051986;28;20075;-68
2022/05/11 06:49:30;;;;;;;9.10;2.72;;;;;;;;;;5047516;28;20017;-68
2022/05/11 06:51:56;;;;;;;11.15;2.65;;;;;;;;;;5034907;28;20020;-68
2022/05/11 06:59:54;;;;;;;13.35;3.40;;;;;;;;;;5043052;28;20029;-66
2022/05/11 07:02:20;;;;;;;20.30;3.40;;;;;;;;;;5040397;28;20528;-65
2022/05/11 07:04:48;;;;;;;17.25;3.97;;;;;;;;;;5045363;28;20412;-66
2022/05/11 07:07:14;;;;;;;12.98;3.42;;;;;;;;;;5050166;28;20021;-66
2022/05/11 07:09:40;;;;;;;10.38;3.10;;;;;;;;;;5044410;28;20032;-65
2022/05/11 07:12:25;;;;;;;19.40;4.20;;;;;;;;;;5054991;28;20087;-65
2022/05/11 07:14:53;;;;;;;18.05;2.95;;;;;;;;;;5058222;28;20037;-66
2022/05/11 07:17:24;;;;;;;15.93;3.22;;;;;;;;;;5054018;28;20464;-66
2022/05/11 07:19:51;;;;;;;14.40;3.38;;;;;;;;;;5050397;28;20032;-66
2022/05/11 07:22:17;;;;;;;16.98;3.05;;;;;;;;;;5055978;28;20043;-66
2022/05/11 07:24:43;;;;;;;13.20;2.58;;;;;;;;;;5052416;28;20401;-66
2022/05/11 07:27:09;;;;;;;10.48;3.45;;;;;;;;;;5052421;28;20024;-66
2022/05/11 07:29:36;;;;;;;9.45;2.88;;;;;;;;;;5050628;28;20082;-66
2022/05/11 07:32:02;;;;;;;11.57;3.47;;;;;;;;;;5052996;28;20025;-66
2022/05/11 07:34:29;;;;;;;11.77;3.40;;;;;;;;;;5086350;28;20067;-66
2022/05/11 07:36:55;;;;;;;12.38;3.17;;;;;;;;;;5048524;28;20453;-66
2022/05/11 07:39:25;;;;;;;9.15;2.80;;;;;;;;;;5051053;28;20482;-66
2022/05/11 07:41:51;;;;;;;18.98;3.05;;;;;;;;;;5051654;28;20085;-66
2022/05/11 07:44:17;;;;;;;14.25;3.00;;;;;;;;;;5052523;28;20029;-66
2022/05/11 07:46:44;;;;;;;9.48;3.17;;;;;;;;;;5050539;28;20025;-66
2022/05/11 07:49:10;;;;;;;11.93;4.25;;;;;;;;;;5052608;28;20078;-66
2022/05/11 07:51:37;;;;;;;18.52;3.08;;;;;;;;;;5052564;28;20069;-66
2022/05/11 07:54:06;;;;;;;10.30;2.75;;;;;;;;;;5050943;28;20103;-66
2022/05/11 08:02:02;;;;;;;18.25;3.35;;;;;;;;;;5052040;28;20025;-66
2022/05/11 08:04:28;;;;;;;10.05;2.55;;;;;;;;;;5052300;28;20023;-66
2022/05/11 08:06:54;;;;;;;15.80;3.53;;;;;;;;;;5052007;28;20047;-66
2022/05/11 08:09:21;;;;;;;11.75;3.90;;;;;;;;;;5053045;28;20029;-66
2022/05/11 08:11:47;;;;;;;12.30;3.33;;;;;;;;;;5049861;28;20149;-66
2022/05/11 08:14:14;;;;;;;13.07;3.22;;;;;;;;;;5053117;28;20021;-66
2022/05/11 08:16:41;;;;;;;10.55;2.63;;;;;;;;;;5052553;28;20025;-66
2022/05/11 08:19:07;;;;;;;14.40;3.00;;;;;;;;;;5049294;28;20079;-66
2022/05/11 08:21:36;;;;;;;11.70;2.67;;;;;;;;;;5053139;28;20090;-66
2022/05/11 08:24:03;;;;;;;13.48;3.35;;;;;;;;;;5049006;28;20136;-66
2022/05/11 08:26:29;;;;;;;11.52;2.42;;;;;;;;;;5079796;28;20025;-66
2022/05/11 08:28:55;;;;;;;12.25;3.40;;;;;;;;;;5042374;28;20032;-66
2022/05/11 08:34:06;;;;;;;14.85;4.07;;;;;;;;;;5043668;28;20032;-66
2022/05/11 08:36:33;;;;;;;8.10;2.75;;;;;;;;;;5050974;28;20036;-66
2022/05/11 08:39:00;;;;;;;10.18;3.13;;;;;;;;;;5047601;28;20120;-66
2022/05/11 08:41:33;;;;;;;14.65;3.17;;;;;;;;;;5052205;28;20052;-66
2022/05/11 08:44:23;;;;;;;16.48;3.10;;;;;;;;;;5047520;28;20036;-66
2022/05/11 08:47:08;;;;;;;11.18;2.38;;;;;;;;;;5045833;28;20048;-66
2022/05/11 08:49:54;;;;;;;11.55;2.80;;;;;;;;;;5052861;28;20035;-66
2022/05/11 08:52:39;;;;;;;9.48;2.72;;;;;;;;;;5051444;28;20033;-66
2022/05/11 08:55:05;;;;;;;10.93;3.13;;;;;;;;;;5052631;28;20040;-66
2022/05/11 08:57:33;;;;;;;14.13;3.80;;;;;;;;;;5052325;28;20044;-66
2022/05/11 09:00:03;;;;;;;12.05;2.72;;;;;;;;;;5053810;28;20021;-66
2022/05/11 09:02:46;;;;;;;11.93;3.05;;;;;;;;;;5043462;28;20040;-66
2022/05/11 09:05:12;;;;;;;7.88;2.53;;;;;;;;;;5042236;28;20036;-66
2022/05/11 09:07:44;;;;;;;12.38;2.53;;;;;;;;;;5054248;28;20032;-66
2022/05/11 09:10:11;;;;;;;16.90;2.60;;;;;;;;;;5048958;28;20512;-66
2022/05/11 09:12:37;;;;;;;13.73;3.05;;;;;;;;;;5050764;28;20048;-66
2022/05/11 09:15:04;;;;;;;9.02;2.70;;;;;;;;;;5052153;28;20033;-66
2022/05/11 09:17:32;;;;;;;14.15;2.75;;;;;;;;;;5050664;28;20039;-66
2022/05/11 09:20:01;;;;;;;11.38;2.88;;;;;;;;;;5048375;28;20044;-65
2022/05/11 09:22:27;;;;;;;8.82;2.70;;;;;;;;;;5051666;28;20017;-66
2022/05/11 09:24:56;;;;;;;14.38;3.03;;;;;;;;;;5051980;28;20029;-65
2022/05/11 09:27:27;;;;;;;8.80;2.45;;;;;;;;;;5050836;28;20041;-65
2022/05/11 09:30:01;;;;;;;11.07;2.58;;;;;;;;;;5053303;28;20553;-66
2022/05/11 09:32:42;;;;;;;9.07;2.53;;;;;;;;;;5051502;28;20120;-66
2022/05/11 09:35:21;;;;;;;17.45;2.78;;;;;;;;;;5050919;28;20083;-66
2022/05/11 09:37:56;;;;;;;10.75;2.70;;;;;;;;;;5044866;28;20508;-66
2022/05/11 09:40:23;;;;;;;11.00;2.58;;;;;;;;;;5044747;28;20021;-66
2022/05/11 09:43:10;;;;;;;13.88;2.95;;;;;;;;;;5047236;28;20108;-66
2022/05/11 09:45:41;;;;;;;7.05;2.00;;;;;;;;;;5048438;28;20489;-66
2022/05/11 09:48:16;;;;;;;12.35;2.83;;;;;;;;;;5042541;28;20520;-65
2022/05/11 09:50:43;;;;;;;17.70;2.28;;;;;;;;;;5049637;28;20151;-66
2022/05/11 09:53:25;;;;;;;13.63;3.17;;;;;;;;;;5049573;28;20025;-66
2022/05/11 09:55:52;;;;;;;7.88;2.65;;;;;;;;;;5050755;28;20044;-66
2022/05/11 09:58:31;;;;;;;12.55;2.50;;;;;;;;;;5046038;28;20025;-66
2022/05/11 10:01:10;;;;;;;10.32;2.30;;;;;;;;;;5049109;28;20025;-65
2022/05/11 10:03:39;;;;;;;7.65;2.20;;;;;;;;;;5044346;28;20036;-66
2022/05/11 10:06:09;;;;;;;9.80;1.98;;;;;;;;;;5043918;28;20022;-66
2022/05/11 10:08:37;;;;;;;5.47;2.00;;;;;;;;;;5049310;28;20029;-65
2022/05/11 10:11:29;;;;;;;9.98;2.42;;;;;;;;;;5049376;28;20025;-65
2022/05/11 10:14:00;;;;;;;7.55;2.03;;;;;;;;;;5044883;28;20037;-65
2022/05/11 10:22:16;;;;;;;;;;;;;;;;;;5055389;28;20400;-66
2022/05/11 10:25:01;;;;;;;8.30;1.92;;;;;;;;;;5051454;28;19905;-66
2022/05/11 10:27:33;;;;;;;9.15;2.28;;;;;;;;;;5049814;28;20116;-65
2022/05/11 10:30:09;;;;;;;9.57;1.80;;;;;;;;;;5039149;28;20034;-66
2022/05/11 10:32:45;;;;;;;7.78;2.17;;;;;;;;;;5043920;28;20037;-66
2022/05/11 10:35:32;;;;;;;4.18;1.75;;;;;;;;;;5040900;28;20405;-66
2022/05/11 10:38:18;;;;;;;7.47;2.00;;;;;;;;;;5047704;28;20025;-66
2022/05/11 10:40:50;;;;;;;6.57;2.03;;;;;;;;;;5046251;28;20040;-66
2022/05/11 10:43:35;;;;;;;7.97;1.93;;;;;;;;;;5042374;28;20136;-65
2022/05/11 10:46:11;;;;;;;8.57;2.38;;;;;;;;;;5043103;28;20401;-66
2022/05/11 10:48:37;;;;;;;6.22;1.83;;;;;;;;;;5041763;28;20036;-66
2022/05/11 10:51:25;;;;;;;6.03;1.67;;;;;;;;;;5046019;28;20020;-66
2022/05/11 10:53:52;;;;;;;5.35;1.67;;;;;;;;;;5045493;28;20036;-66
2022/05/11 10:56:24;;;;;;;5.32;1.77;;;;;;;;;;5043584;28;20135;-66
2022/05/11 10:59:07;;;;;;;3.17;1.50;;;;;;;;;;5045295;28;20045;-66
2022/05/11 11:01:51;;;;;;;11.27;2.95;;;;;;;;;;5045588;28;20029;-66
2022/05/11 11:04:23;;;;;;;6.45;1.65;;;;;;;;;;5036688;28;20022;-66
2022/05/11 11:09:34;;;;;;;8.05;1.45;;;;;;;;;;5042849;28;20056;-66
2022/05/11 11:12:01;;;;;;;5.45;1.45;;;;;;;;;;5032083;28;20025;-66
2022/05/11 11:14:32;;;;;;;6.28;1.80;;;;;;;;;;5044996;28;20032;-66
2022/05/11 11:17:00;;;;;;;8.35;1.48;;;;;;;;;;5043093;28;20433;-66
2022/05/11 11:19:27;;;;;;;10.75;2.15;;;;;;;;;;5032580;28;20229;-66
2022/05/11 11:21:53;;;;;;;6.72;1.83;;;;;;;;;;5045699;28;20021;-66
2022/05/11 11:24:22;;;;;;;3.85;1.20;;;;;;;;;;5033484;28;20488;-66
2022/05/11 11:26:57;;;;;;;7.00;1.27;;;;;;;;;;5049153;28;20048;-66
2022/05/11 11:29:34;;;;;;;4.10;1.80;;;;;;;;;;5048314;28;20117;-65
2022/05/11 11:32:00;;;;;;;3.42;1.33;;;;;;;;;;5036933;28;20037;-66
2022/05/11 11:34:29;;;;;;;7.25;1.65;;;;;;;;;;5037019;28;20036;-66
2022/05/11 11:36:56;;;;;;;5.18;1.25;;;;;;;;;;5044654;28;20125;-65
2022/05/11 11:39:41;;;;;;;4.82;1.50;;;;;;;;;;5032373;28;20025;-66
2022/05/11 11:42:07;;;;;;;4.53;1.65;;;;;;;;;;5045557;28;20424;-66
2022/05/11 11:44:39;;;;;;;5.97;1.40;;;;;;;;;;5039003;28;20018;-66
2022/05/11 11:47:26;;;;;;;11.35;1.17;;;;;;;;;;5041833;28;20036;-65
2022/05/11 11:49:57;;;;;;;6.07;1.40;;;;;;;;;;5036722;28;20048;-66
2022/05/11 11:52:43;;;;;;;7.32;1.80;;;;;;;;;;5049266;28;20033;-66
2022/05/11 11:55:19;;;;;;;5.47;1.80;;;;;;;;;;5043713;28;20029;-66
2022/05/11 11:57:51;;;;;;;10.95;1.77;;;;;;;;;;5047895;28;20390;-66
2022/05/11 12:00:24;;;;;;;16.48;2.65;;;;;;;;;;5049137;28;20029;-66
2022/05/11 12:02:51;;;;;;;6.80;1.77;;;;;;;;;;5045877;28;20029;-66
2022/05/11 12:05:26;;;;;;;5.93;1.98;;;;;;;;;;5048805;28;20029;-66
2022/05/11 12:15:01;;;;;;;8.15;1.75;;;;;;;;;;5043814;28;20029;-66
2022/05/11 12:16:44;;;;;;;9.40;1.70;;;;;;;;;;5043526;28;20029;-66
2022/05/11 12:19:12;;;;;;;5.30;1.67;;;;;;;;;;5039845;28;20025;-66
2022/05/11 12:21:41;;;;;;;7.82;1.88;;;;;;;;;;5046496;28;20033;-66
2022/05/11 12:24:08;;;;;;;9.82;1.83;;;;;;;;;;5042609;28;20018;-66
2022/05/11 12:26:36;;;;;;;7.18;1.52;;;;;;;;;;5039747;28;20025;-66
2022/05/11 12:31:53;;;;;;;11.70;1.60;;;;;;;;;;5041666;28;20021;-66
2022/05/11 12:34:23;;;;;;;9.70;1.90;;;;;;;;;;5040467;28;20075;-66
2022/05/11 12:36:52;;;;;;;9.60;2.25;;;;;;;;;;5043241;28;20065;-66
2022/05/11 12:39:38;;;;;;;9.50;2.38;;;;;;;;;;5048815;28;20014;-66
2022/05/11 12:42:05;;;;;;;7.47;1.63;;;;;;;;;;5044832;28;20029;-66
2022/05/11 12:44:33;;;;;;;7.40;2.05;;;;;;;;;;5045057;28;20021;-66
2022/05/11 12:47:01;;;;;;;10.07;2.00;;;;;;;;;;5048160;28;20032;-66
2022/05/11 12:49:28;;;;;;;8.40;3.08;;;;;;;;;;5048952;28;20021;-65
2022/05/11 12:51:55;;;;;;;10.10;2.33;;;;;;;;;;5049515;28;20078;-66
2022/05/11 12:54:23;;;;;;;9.57;1.98;;;;;;;;;;5047281;28;20021;-66
2022/05/11 12:56:59;;;;;;;8.93;2.20;;;;;;;;;;5045474;28;20501;-66
2022/05/11 12:59:27;;;;;;;6.43;1.67;;;;;;;;;;5048996;28;20476;-66
2022/05/11 13:02:12;;;;;;;10.13;1.88;;;;;;;;;;5047934;28;20017;-65
2022/05/11 13:04:47;;;;;;;9.55;1.98;;;;;;;;;;5050097;28;20060;-66
2022/05/11 13:07:13;;;;;;;11.32;2.03;;;;;;;;;;5047946;28;20107;-66
2022/05/11 13:09:44;;;;;;;10.73;2.33;;;;;;;;;;5049582;28;20029;-66
2022/05/11 13:12:12;;;;;;;8.70;2.45;;;;;;;;;;5047864;28;20029;-66
2022/05/11 13:14:45;;;;;;;5.85;1.75;;;;;;;;;;5048429;28;20035;-66
2022/05/11 13:17:19;;;;;;;7.05;1.85;;;;;;;;;;5046474;28;20438;-66
2022/05/11 13:19:51;;;;;;;10.75;2.03;;;;;;;;;;5049684;28;20020;-65
2022/05/11 13:22:22;;;;;;;9.25;1.98;;;;;;;;;;5047509;28;20045;-66
2022/05/11 13:24:55;;;;;;;15.55;2.10;;;;;;;;;;5048004;28;20043;-66
2022/05/11 13:27:34;;;;;;;14.70;3.50;;;;;;;;;;5051126;28;20074;-66
2022/05/11 13:30:12;;;;;;;7.50;2.35;;;;;;;;;;5048222;28;20021;-66
2022/05/11 13:32:40;;;;;;;18.60;3.08;;;;;;;;;;5045811;28;20056;-66
2022/05/11 13:35:23;;;;;;;8.15;2.47;;;;;;;;;;5046085;28;20392;-66
2022/05/11 13:38:01;;;;;;;12.07;2.85;;;;;;;;;;5048876;28;20025;-66
2022/05/11 13:40:32;;;;;;;11.75;2.78;;;;;;;;;;5048793;28;20025;-66
2022/05/11 13:42:59;;;;;;;14.50;2.75;;;;;;;;;;5048650;28;20025;-66
2022/05/11 13:45:25;;;;;;;14.43;3.17;;;;;;;;;;5048851;28;20032;-66
2022/05/11 13:50:42;;;;;;;16.35;2.75;;;;;;;;;;5048147;28;20036;-66
2022/05/11 13:53:11;;;;;;;9.63;2.90;;;;;;;;;;5047765;28;20516;-66
2022/05/11 13:55:39;;;;;;;10.50;2.60;;;;;;;;;;5046418;28;20091;-66
2022/05/11 13:58:21;;;;;;;14.65;2.92;;;;;;;;;;5047515;28;20049;-66
2022/05/11 14:00:47;;;;;;;15.30;3.17;;;;;;;;;;5047263;28;20033;-66
2022/05/11 14:03:14;;;;;;;10.70;2.60;;;;;;;;;;5048245;28;20263;-66
2022/05/11 14:05:41;;;;;;;18.48;2.95;;;;;;;;;;5034942;28;20063;-66
2022/05/11 14:08:07;;;;;;;18.50;3.40;;;;;;;;;;5048431;28;20087;-66
2022/05/11 14:10:33;;;;;;;14.00;3.17;;;;;;;;;;5049852;28;20078;-66
2022/05/11 14:12:59;;;;;;;18.23;3.25;;;;;;;;;;5049076;28;20032;-66
2022/05/11 14:15:26;;;;;;;13.88;2.65;;;;;;;;;;5040640;28;20037;-66
2022/05/11 14:17:52;;;;;;;14.48;3.05;;;;;;;;;;5039236;28;20033;-66
2022/05/11 14:20:25;;;;;;;23.55;3.00;;;;;;;;;;5041491;28;20052;-66
2022/05/11 14:22:51;;;;;;;21.45;3.80;;;;;;;;;;5044576;28;20036;-66
2022/05/11 14:25:17;;;;;;;21.63;3.63;;;;;;;;;;5043671;28;20036;-65
2022/05/11 14:27:44;;;;;;;15.32;3.90;;;;;;;;;;5047795;28;20115;-65
2022/05/11 14:30:11;;;;;;;13.95;3.45;;;;;;;;;;5046197;28;20392;-66
2022/05/11 14:32:40;;;;;;;24.80;4.78;;;;;;;;;;5047645;28;20519;-66
2022/05/11 14:35:09;;;;;;;33.22;5.63;;;;;;;;;;5046156;28;20016;-65
2022/05/11 14:37:35;;;;;;;27.60;4.70;;;;;;;;;;5044034;28;20036;-66
2022/05/11 14:40:03;;;;;;;36.40;6.25;;;;;;;;;;5047330;28;20033;-66
2022/05/11 14:42:30;;;;;;;29.25;5.20;;;;;;;;;;5046261;28;20188;-66
2022/05/11 14:44:57;;;;;;;30.10;5.53;;;;;;;;;;5046764;28;20027;-65
2022/05/11 14:47:23;;;;;;;39.15;5.75;;;;;;;;;;5043688;28;20033;-65
2022/05/11 14:49:49;;;;;;;37.15;7.72;;;;;;;;;;5043559;28;20112;-65
2022/05/11 14:52:16;;;;;;;36.85;6.22;;;;;;;;;;5047057;28;20166;-65
2022/05/11 14:54:42;;;;;;;38.22;6.10;;;;;;;;;;5045059;28;20025;-65
2022/05/11 15:02:41;;;;;;;26.15;4.80;;;;;;;;;;5020725;28;20129;-66
2022/05/11 15:05:08;;;;;;;25.80;4.80;;;;;;;;;;5008647;28;20665;-66
2022/05/11 15:07:35;;;;;;;16.52;3.88;;;;;;;;;;5022853;28;20045;-65
2022/05/11 15:10:01;;;;;;;15.70;3.97;;;;;;;;;;5022810;28;20635;-65
2022/05/11 15:15:12;;;;;;;20.70;3.75;;;;;;;;;;5023599;28;20034;-65
2022/05/11 15:17:39;;;;;;;13.40;4.07;;;;;;;;;;5020489;28;20060;-65
2022/05/11 15:20:06;;;;;;;12.10;2.35;;;;;;;;;;5024434;28;20555;-66
2022/05/11 15:22:35;;;;;;;9.98;1.90;;;;;;;;;;5023950;28;20029;-65
2022/05/11 15:25:02;;;;;;;12.18;1.92;;;;;;;;;;5024466;28;20045;-65
2022/05/11 15:27:28;;;;;;;6.93;1.42;;;;;;;;;;5019814;28;20061;-65
2022/05/11 15:29:55;;;;;;;13.50;1.85;;;;;;;;;;5019251;28;20037;-66
2022/05/11 15:32:22;;;;;;;8.60;1.80;;;;;;;;;;5022860;28;20029;-66
2022/05/11 15:34:48;;;;;;;10.73;1.85;;;;;;;;;;5023422;28;20025;-66
2022/05/11 15:37:14;;;;;;;12.38;2.05;;;;;;;;;;5032681;28;20049;-66
2022/05/11 15:39:41;;;;;;;14.70;1.70;;;;;;;;;;5054221;28;20548;-66